Time;durP1;ratioP1;P1;durP2;ratioP2;P2;SDS_P1;SDS_P2;PMS_P1;PMS_P2;Temp;Humidity;BMP_temperature;BMP_pressure;BME280_temperature;BME280_humidity;BME280_pressure;Samples;Min_cycle;Max_cycle;Signal;HPM_P1;HPM_P2
2023/03/17 00:00:03;;;;;;;2.40;1.77;;;;;;;6.82;53.33;100456.66;4961577;28;20211;-74
2023/03/17 00:02:29;;;;;;;3.60;1.90;;;;;;;6.84;53.15;100449.50;4962125;28;20227;-75
2023/03/17 00:04:56;;;;;;;3.20;1.80;;;;;;;6.87;53.58;100441.41;4962066;28;20723;-75
2023/03/17 00:07:24;;;;;;;4.43;1.87;;;;;;;6.89;53.44;100439.53;4968528;28;21095;-74
2023/03/17 00:09:51;;;;;;;2.17;1.90;;;;;;;6.85;53.03;100440.63;4968513;28;20208;-75
2023/03/17 00:12:18;;;;;;;4.70;2.07;;;;;;;6.86;53.11;100428.25;4961766;28;20221;-74
2023/03/17 00:14:45;;;;;;;2.20;1.70;;;;;;;6.90;53.52;100424.50;4969585;28;20311;-75
2023/03/17 00:17:14;;;;;;;2.57;1.90;;;;;;;6.89;53.54;100417.50;4959520;28;20211;-74
2023/03/17 00:19:42;;;;;;;2.60;2.00;;;;;;;6.89;53.42;100430.72;4969354;28;20212;-74
2023/03/17 00:22:16;;;;;;;4.00;2.33;;;;;;;6.87;53.67;100432.59;4962342;28;20228;-74
2023/03/17 00:24:44;;;;;;;3.73;2.43;;;;;;;6.85;53.44;100422.09;4969558;28;20214;-75
2023/03/17 00:27:12;;;;;;;2.93;1.60;;;;;;;6.85;53.27;100430.03;4968524;28;20453;-74
2023/03/17 00:29:38;;;;;;;2.87;2.37;;;;;;;6.82;53.59;100431.97;4969945;28;20258;-75
2023/03/17 00:32:06;;;;;;;4.63;2.63;;;;;;;6.84;53.85;100430.97;4962085;28;20740;-74
2023/03/17 00:34:33;;;;;;;3.53;2.30;;;;;;;6.88;53.44;100421.94;4968191;28;20704;-75
2023/03/17 00:36:59;;;;;;;3.10;2.10;;;;;;;6.87;53.04;100406.97;4965331;28;20242;-74
2023/03/17 00:39:26;;;;;;;3.10;2.30;;;;;;;6.85;53.75;100410.63;4964505;28;20220;-76
2023/03/17 00:41:53;;;;;;;2.63;2.03;;;;;;;6.87;53.81;100406.13;4969340;28;20856;-74
2023/03/17 00:44:20;;;;;;;3.23;2.03;;;;;;;6.79;53.63;100411.84;4966117;28;20218;-74
2023/03/17 00:46:46;;;;;;;3.00;2.23;;;;;;;6.79;53.51;100409.19;4970760;28;20208;-74
2023/03/17 00:49:16;;;;;;;4.00;2.27;;;;;;;6.80;54.41;100420.63;4968840;28;20207;-75
2023/03/17 00:51:43;;;;;;;2.47;2.20;;;;;;;6.79;53.93;100417.13;4968270;28;20294;-74
2023/03/17 00:54:10;;;;;;;3.90;2.33;;;;;;;6.77;54.03;100404.91;4965200;28;20216;-74
2023/03/17 00:56:38;;;;;;;3.70;2.30;;;;;;;6.80;53.97;100407.41;4967807;28;20619;-75
2023/03/17 00:59:18;;;;;;;2.67;2.00;;;;;;;6.79;53.98;100405.69;4969697;28;20212;-75
2023/03/17 01:01:44;;;;;;;3.50;2.10;;;;;;;6.78;54.25;100406.63;4961815;28;20574;-74
2023/03/17 01:04:10;;;;;;;3.53;2.60;;;;;;;6.77;54.41;100411.06;4968088;28;20679;-74
2023/03/17 01:06:37;;;;;;;3.10;2.33;;;;;;;6.79;54.22;100416.28;4968277;28;20204;-74
2023/03/17 01:09:04;;;;;;;3.67;2.53;;;;;;;6.79;53.98;100403.03;4958898;28;20647;-74
2023/03/17 01:11:30;;;;;;;3.47;2.37;;;;;;;6.79;54.24;100406.53;4967242;28;20779;-74
2023/03/17 01:13:57;;;;;;;3.33;2.40;;;;;;;6.77;54.12;100402.25;4960434;28;20299;-74
2023/03/17 01:16:25;;;;;;;3.57;1.97;;;;;;;6.78;54.03;100404.84;4957193;28;20267;-74
2023/03/17 01:18:52;;;;;;;2.90;2.20;;;;;;;6.84;53.49;100395.69;4961029;28;20205;-75
2023/03/17 01:21:19;;;;;;;3.60;2.53;;;;;;;6.84;54.37;100401.84;4962450;28;20227;-75
2023/03/17 01:23:46;;;;;;;3.37;2.47;;;;;;;6.82;54.07;100384.31;4967420;28;20224;-74
2023/03/17 01:26:12;;;;;;;5.53;2.53;;;;;;;6.80;54.47;100395.03;4963703;28;20215;-74
2023/03/17 01:28:40;;;;;;;6.43;2.90;;;;;;;6.79;53.91;100392.44;4967800;28;20216;-75
2023/03/17 01:31:06;;;;;;;3.80;2.67;;;;;;;6.77;54.92;100389.88;4966752;28;20236;-75
2023/03/17 01:33:34;;;;;;;3.87;2.87;;;;;;;6.80;54.41;100399.47;4957793;28;20213;-75
2023/03/17 01:36:00;;;;;;;5.00;2.60;;;;;;;6.79;54.93;100400.38;4963449;28;20204;-75
2023/03/17 01:38:27;;;;;;;3.87;2.73;;;;;;;6.77;55.00;100403.13;4965228;28;20579;-74
2023/03/17 01:40:54;;;;;;;5.07;2.47;;;;;;;6.83;54.95;100401.91;4960170;28;20705;-74
2023/03/17 01:43:23;;;;;;;5.50;2.57;;;;;;;6.83;55.00;100410.72;4968965;28;20311;-73
2023/03/17 01:46:17;;;;;;;3.47;2.53;;;;;;;6.85;54.47;100394.75;4964809;28;20458;-74
2023/03/17 01:48:48;;;;;;;3.47;2.80;;;;;;;6.84;54.21;100374.53;4966744;28;20231;-75
2023/03/17 01:51:20;;;;;;;3.87;2.67;;;;;;;6.86;54.19;100386.75;4964494;28;20225;-76
2023/03/17 01:53:49;;;;;;;4.33;2.80;;;;;;;6.81;54.62;100390.56;4968824;28;20208;-75
2023/03/17 01:56:16;;;;;;;3.97;3.00;;;;;;;6.77;54.00;100405.75;4970496;28;20209;-74
2023/03/17 01:58:45;;;;;;;4.13;2.97;;;;;;;6.79;54.89;100398.59;4972009;28;20212;-74
2023/03/17 02:01:12;;;;;;;2.73;2.43;;;;;;;6.81;54.37;100396.69;4967862;28;20878;-74
2023/03/17 02:03:40;;;;;;;5.47;3.13;;;;;;;6.83;54.19;100384.25;4968759;28;20212;-76
2023/03/17 02:06:10;;;;;;;4.30;2.80;;;;;;;6.83;54.38;100389.53;4970743;28;20228;-74
2023/03/17 02:08:36;;;;;;;5.00;2.73;;;;;;;6.85;54.58;100385.03;4968970;28;20208;-74
2023/03/17 02:11:04;;;;;;;3.67;2.43;;;;;;;6.88;53.70;100378.72;4970269;28;20243;-74
2023/03/17 02:13:31;;;;;;;6.30;3.27;;;;;;;6.89;54.26;100377.78;4971553;28;20718;-74
2023/03/17 02:15:58;;;;;;;4.07;2.80;;;;;;;6.86;54.33;100383.25;4969172;28;20628;-75
2023/03/17 02:18:24;;;;;;;4.13;2.70;;;;;;;6.87;54.30;100385.81;4966746;28;20212;-74
2023/03/17 02:21:24;;;;;;;4.97;3.20;;;;;;;6.90;54.68;100380.34;4971817;28;20200;-74
2023/03/17 02:23:51;;;;;;;3.80;2.53;;;;;;;6.89;54.25;100370.69;4965653;28;20271;-74
2023/03/17 02:26:22;;;;;;;3.70;2.83;;;;;;;6.93;54.21;100353.72;4964203;28;20213;-74
2023/03/17 02:28:48;;;;;;;3.87;2.37;;;;;;;6.92;54.37;100354.66;4969053;28;20212;-74
2023/03/17 02:31:15;;;;;;;2.97;2.43;;;;;;;6.92;54.30;100353.81;4971677;28;20251;-74
2023/03/17 02:33:42;;;;;;;3.83;2.57;;;;;;;6.89;54.04;100343.38;4970705;28;20295;-74
2023/03/17 02:36:09;;;;;;;4.23;2.83;;;;;;;6.85;54.84;100345.31;4970730;28;20211;-74
2023/03/17 02:38:36;;;;;;;4.87;3.00;;;;;;;6.81;54.74;100349.06;4972057;28;20290;-76
2023/03/17 02:41:06;;;;;;;3.43;2.53;;;;;;;6.78;54.79;100341.31;4967103;28;20220;-75
2023/03/17 02:43:32;;;;;;;3.20;2.53;;;;;;;6.78;54.68;100346.59;4975289;22;20228;-73
2023/03/17 02:46:00;;;;;;;2.90;2.40;;;;;;;6.76;55.12;100345.81;4956691;28;20639;-71
2023/03/17 02:48:27;;;;;;;2.73;2.43;;;;;;;6.74;54.30;100365.34;4953999;28;20424;-71
2023/03/17 02:50:53;;;;;;;5.10;3.40;;;;;;;6.73;54.64;100367.16;4955239;28;20319;-70
2023/03/17 02:53:19;;;;;;;4.97;2.70;;;;;;;6.74;54.35;100368.88;4949928;28;20729;-71
2023/03/17 02:55:46;;;;;;;6.03;3.20;;;;;;;6.71;54.91;100373.44;4948182;28;20208;-69
2023/03/17 02:58:14;;;;;;;3.77;2.63;;;;;;;6.71;54.46;100379.59;4946099;28;20220;-73
2023/03/17 03:00:40;;;;;;;3.67;2.67;;;;;;;6.71;55.07;100374.31;4948904;28;20216;-71
2023/03/17 03:03:07;;;;;;;4.17;2.73;;;;;;;6.71;54.75;100379.59;4951979;28;20460;-74
2023/03/17 03:05:34;;;;;;;4.00;2.80;;;;;;;6.73;55.10;100374.22;4948092;28;20205;-72
2023/03/17 03:08:01;;;;;;;5.57;2.63;;;;;;;6.74;54.67;100368.00;4943983;28;20221;-74
2023/03/17 03:10:27;;;;;;;3.37;2.50;;;;;;;6.75;54.27;100365.28;4949364;28;20213;-73
2023/03/17 03:12:53;;;;;;;5.63;3.40;;;;;;;6.77;54.41;100355.47;4945827;28;20240;-72
2023/03/17 03:15:21;;;;;;;4.83;2.93;;;;;;;6.81;54.55;100362.28;4941346;28;20216;-73
2023/03/17 03:17:48;;;;;;;3.83;2.60;;;;;;;6.84;54.27;100367.44;4946717;28;20694;-72
2023/03/17 03:20:15;;;;;;;3.47;2.53;;;;;;;6.87;54.30;100372.56;4945205;28;20213;-72
2023/03/17 03:22:41;;;;;;;4.40;2.60;;;;;;;6.89;54.82;100370.69;4947915;28;20240;-73
2023/03/17 03:25:08;;;;;;;3.97;2.63;;;;;;;6.89;54.57;100377.78;4950535;28;20208;-73
2023/03/17 03:27:35;;;;;;;4.20;2.73;;;;;;;6.90;53.78;100375.06;4951886;28;20209;-72
2023/03/17 03:30:02;;;;;;;3.00;2.23;;;;;;;6.95;54.10;100383.63;4947785;28;20678;-72
2023/03/17 03:32:30;;;;;;;3.60;3.20;;;;;;;6.99;54.32;100381.66;4945428;28;20229;-72
2023/03/17 03:34:56;;;;;;;4.27;2.80;;;;;;;7.00;54.34;100375.41;4948082;28;20678;-71
2023/03/17 03:37:23;;;;;;;5.00;2.53;;;;;;;6.99;53.93;100372.88;4949299;28;20279;-70
2023/03/17 03:39:50;;;;;;;3.70;2.80;;;;;;;6.99;53.54;100376.34;4950281;28;20631;-73
2023/03/17 03:42:16;;;;;;;3.37;2.33;;;;;;;6.96;53.87;100372.09;4950310;28;20609;-72
2023/03/17 03:44:43;;;;;;;4.17;2.93;;;;;;;6.96;54.50;100369.47;4948525;28;20487;-73
2023/03/17 03:47:10;;;;;;;4.73;2.80;;;;;;;6.95;54.34;100367.75;4948308;28;20212;-72
2023/03/17 03:49:38;;;;;;;4.23;2.57;;;;;;;6.94;54.16;100358.09;4946200;28;20201;-73
2023/03/17 03:52:05;;;;;;;3.47;2.67;;;;;;;6.94;54.02;100354.59;4948721;28;20324;-72
2023/03/17 03:54:31;;;;;;;3.10;2.20;;;;;;;6.94;54.02;100350.16;4951818;28;20275;-73
2023/03/17 03:56:59;;;;;;;4.30;3.10;;;;;;;6.94;54.35;100349.28;4944718;28;20639;-70
2023/03/17 03:59:26;;;;;;;3.67;2.60;;;;;;;6.93;53.98;100358.16;4945588;28;20248;-72
2023/03/17 04:01:52;;;;;;;3.93;2.80;;;;;;;6.90;54.15;100358.31;4945080;28;20232;-72
2023/03/17 04:04:19;;;;;;;3.90;2.60;;;;;;;6.90;54.49;100350.38;4947349;28;20204;-72
2023/03/17 04:06:47;;;;;;;4.57;2.57;;;;;;;6.89;54.61;100351.31;4950819;28;20208;-72
2023/03/17 04:09:13;;;;;;;4.47;2.60;;;;;;;6.85;54.47;100339.16;4941951;28;20309;-72
2023/03/17 04:11:40;;;;;;;3.50;3.00;;;;;;;6.82;54.14;100340.19;4952513;28;20229;-71
2023/03/17 04:14:07;;;;;;;3.03;2.43;;;;;;;6.78;54.05;100328.06;4945781;28;20220;-72
2023/03/17 04:16:33;;;;;;;3.57;2.53;;;;;;;6.76;55.01;100321.16;4950923;28;20268;-72
2023/03/17 04:19:00;;;;;;;3.90;2.93;;;;;;;6.71;54.48;100318.72;4950438;28;20217;-72
2023/03/17 04:21:26;;;;;;;3.23;2.57;;;;;;;6.68;54.84;100296.88;4946771;28;20209;-71
2023/03/17 04:23:54;;;;;;;3.20;2.50;;;;;;;6.63;54.97;100298.91;4946485;28;20234;-71
2023/03/17 04:26:21;;;;;;;3.70;2.63;;;;;;;6.59;54.96;100300.88;4948261;28;20212;-72
2023/03/17 04:28:48;;;;;;;4.03;2.70;;;;;;;6.53;55.42;100317.03;4945162;28;20226;-72
2023/03/17 04:31:15;;;;;;;2.80;2.50;;;;;;;6.48;55.71;100304.06;4946048;28;20220;-71
2023/03/17 04:33:41;;;;;;;4.83;3.10;;;;;;;6.46;55.31;100305.91;4942186;28;20225;-71
2023/03/17 04:36:14;;;;;;;4.83;3.00;;;;;;;6.44;55.44;100301.66;4943232;28;20686;-72
2023/03/17 04:38:41;;;;;;;4.80;3.40;;;;;;;6.42;55.70;100304.38;4945561;28;20212;-71
2023/03/17 04:41:09;;;;;;;4.67;2.90;;;;;;;6.39;55.58;100301.03;4948375;28;20217;-71
2023/03/17 04:43:35;;;;;;;4.37;2.87;;;;;;;6.38;55.87;100305.47;4948111;28;20233;-70
2023/03/17 04:46:01;;;;;;;4.33;3.30;;;;;;;6.37;55.37;100310.84;4944071;28;20209;-71
2023/03/17 04:48:28;;;;;;;4.27;2.90;;;;;;;6.35;55.86;100312.72;4947332;28;20204;-71
2023/03/17 04:50:54;;;;;;;3.97;2.83;;;;;;;6.32;55.89;100315.50;4946617;28;20383;-71
2023/03/17 04:53:21;;;;;;;3.97;2.60;;;;;;;6.29;55.41;100316.50;4942925;28;20244;-71
2023/03/17 04:55:47;;;;;;;3.60;2.60;;;;;;;6.28;55.82;100312.16;4947469;28;20215;-71
2023/03/17 04:58:15;;;;;;;3.90;2.57;;;;;;;6.23;55.77;100317.69;4936347;28;20206;-70
2023/03/17 05:00:42;;;;;;;4.40;2.83;;;;;;;6.21;55.94;100324.00;4946732;28;20208;-72
2023/03/17 05:03:08;;;;;;;3.30;2.73;;;;;;;6.17;55.60;100328.56;4938599;28;20232;-71
2023/03/17 05:05:35;;;;;;;5.37;3.20;;;;;;;6.14;55.82;100325.22;4939365;28;20223;-71
2023/03/17 05:08:02;;;;;;;3.73;2.40;;;;;;;6.11;56.28;100325.38;4948774;28;20251;-72
2023/03/17 05:10:29;;;;;;;4.43;3.00;;;;;;;6.04;56.32;100311.63;4947515;28;20201;-72
2023/03/17 05:12:55;;;;;;;6.27;3.20;;;;;;;6.02;56.30;100316.13;4945021;28;21556;-70
2023/03/17 05:15:23;;;;;;;3.73;2.90;;;;;;;6.01;56.58;100321.50;4940299;28;20655;-71
2023/03/17 05:17:49;;;;;;;5.67;3.40;;;;;;;5.97;56.45;100325.22;4945591;28;20205;-72
2023/03/17 05:20:16;;;;;;;3.87;2.80;;;;;;;5.95;57.01;100330.56;4944710;28;20229;-70
2023/03/17 05:22:43;;;;;;;4.40;3.00;;;;;;;5.96;56.68;100320.84;4944365;28;20217;-71
2023/03/17 05:25:09;;;;;;;4.00;2.90;;;;;;;5.97;56.88;100320.78;4947197;28;20209;-70
2023/03/17 05:27:36;;;;;;;3.90;2.87;;;;;;;5.97;56.77;100327.84;4947071;28;20309;-71
2023/03/17 05:30:03;;;;;;;6.00;3.03;;;;;;;6.01;56.76;100319.69;4953490;28;20385;-70
2023/03/17 05:32:31;;;;;;;4.20;3.10;;;;;;;6.06;56.53;100307.13;4945695;28;20228;-71
2023/03/17 05:34:58;;;;;;;3.03;2.47;;;;;;;6.09;56.86;100296.38;4949678;28;20238;-70
2023/03/17 05:37:25;;;;;;;4.73;3.27;;;;;;;6.07;56.69;100300.91;4943786;28;20293;-70
2023/03/17 05:39:52;;;;;;;5.03;3.07;;;;;;;6.05;56.40;100318.63;4946862;28;20637;-70
2023/03/17 05:42:19;;;;;;;6.00;3.20;;;;;;;6.03;56.71;100322.28;4947668;28;20504;-71
2023/03/17 05:44:45;;;;;;;3.87;2.10;;;;;;;6.03;56.33;100312.56;4949777;28;21324;-71
2023/03/17 05:47:12;;;;;;;4.27;2.63;;;;;;;6.04;56.70;100303.69;4947055;28;20244;-71
2023/03/17 05:49:40;;;;;;;4.10;2.80;;;;;;;6.02;56.69;100299.41;4947278;28;20213;-72
2023/03/17 05:52:07;;;;;;;3.07;2.50;;;;;;;6.00;56.73;100314.50;4947048;28;20251;-71
2023/03/17 05:54:33;;;;;;;3.27;2.20;;;;;;;5.92;56.45;100299.00;4947121;28;20471;-71
2023/03/17 05:57:00;;;;;;;6.60;3.40;;;;;;;5.88;57.03;100297.44;4945328;28;20209;-71
2023/03/17 05:59:26;;;;;;;5.03;2.77;;;;;;;5.85;56.97;100292.28;4946646;28;20214;-69
2023/03/17 06:01:53;;;;;;;6.17;2.90;;;;;;;5.82;57.19;100284.50;4943493;28;20235;-70
2023/03/17 06:04:19;;;;;;;5.20;3.20;;;;;;;5.79;57.07;100300.50;4946505;28;20213;-70
2023/03/17 06:06:47;;;;;;;4.30;3.00;;;;;;;5.76;57.08;100312.09;4946849;28;20213;-72
2023/03/17 06:09:14;;;;;;;6.67;3.27;;;;;;;5.73;57.41;100303.47;4947126;28;20217;-72
2023/03/17 06:11:42;;;;;;;6.73;3.37;;;;;;;5.72;57.61;100307.03;4944420;28;20233;-71
2023/03/17 06:14:09;;;;;;;6.40;3.50;;;;;;;5.69;57.67;100308.03;4941566;28;20622;-70
2023/03/17 06:16:35;;;;;;;5.57;2.63;;;;;;;5.67;57.69;100307.25;4944877;28;20467;-70
2023/03/17 06:19:02;;;;;;;6.43;3.20;;;;;;;5.65;57.89;100302.97;4947941;28;20216;-70
2023/03/17 06:21:28;;;;;;;8.30;3.50;;;;;;;5.63;58.06;100304.84;4942784;28;20213;-72
2023/03/17 06:23:56;;;;;;;4.37;3.13;;;;;;;5.61;58.13;100306.69;4950002;28;20617;-72
2023/03/17 06:26:22;;;;;;;4.27;2.70;;;;;;;5.58;58.46;100311.19;4943134;28;20215;-72
2023/03/17 06:28:49;;;;;;;6.23;3.27;;;;;;;5.57;58.48;100308.63;4949593;28;20204;-70
2023/03/17 06:31:16;;;;;;;8.00;2.80;;;;;;;5.54;58.73;100301.72;4944581;28;20220;-72
2023/03/17 06:33:43;;;;;;;4.30;2.83;;;;;;;5.55;59.32;100295.47;4946217;28;20324;-72
2023/03/17 06:36:09;;;;;;;4.97;2.67;;;;;;;5.57;59.01;100288.34;4946962;28;20213;-71
2023/03/17 06:38:36;;;;;;;4.53;2.73;;;;;;;5.61;59.16;100290.84;4949227;28;20205;-72
2023/03/17 06:41:04;;;;;;;5.60;3.10;;;;;;;5.64;59.54;100299.47;4950680;28;20626;-71
2023/03/17 06:43:31;;;;;;;3.80;2.70;;;;;;;5.66;59.45;100297.63;4945778;28;20240;-71
2023/03/17 06:45:58;;;;;;;3.67;2.40;;;;;;;5.71;59.56;100302.69;4944995;28;20207;-72
2023/03/17 06:48:24;;;;;;;4.23;2.37;;;;;;;5.76;59.52;100314.72;4952723;28;20220;-69
2023/03/17 06:50:51;;;;;;;4.63;2.67;;;;;;;5.82;59.14;100313.56;4949493;28;20214;-72
2023/03/17 06:53:17;;;;;;;6.37;2.73;;;;;;;5.88;59.50;100319.47;4948409;28;20643;-71
2023/03/17 06:55:44;;;;;;;3.77;2.97;;;;;;;5.97;59.63;100310.22;4953359;28;20209;-71
2023/03/17 06:58:12;;;;;;;3.73;2.50;;;;;;;6.04;59.54;100308.97;4950248;28;20212;-70
2023/03/17 07:00:38;;;;;;;2.73;2.27;;;;;;;6.11;59.97;100310.38;4947043;28;20227;-71
2023/03/17 07:03:05;;;;;;;3.70;2.27;;;;;;;6.16;59.43;100316.28;4951136;28;20281;-72
2023/03/17 07:05:32;;;;;;;4.90;3.20;;;;;;;6.25;60.05;100312.34;4952098;28;20228;-72
2023/03/17 07:07:58;;;;;;;3.77;2.77;;;;;;;6.33;60.14;100298.69;4946555;28;20701;-70
2023/03/17 07:10:25;;;;;;;6.73;3.00;;;;;;;6.42;60.02;100293.81;4948103;28;20217;-72
2023/03/17 07:12:52;;;;;;;4.63;3.80;;;;;;;6.51;60.47;100292.47;4951732;28;20264;-72
2023/03/17 07:15:19;;;;;;;6.47;4.33;;;;;;;6.59;60.15;100298.22;4948891;28;20236;-72
2023/03/17 07:17:46;;;;;;;4.83;2.33;;;;;;;6.70;59.32;100301.16;4950128;28;20209;-71
2023/03/17 07:20:13;;;;;;;3.40;2.10;;;;;;;6.81;58.90;100298.78;4950799;28;20209;-71
2023/03/17 07:22:40;;;;;;;3.00;2.23;;;;;;;6.89;59.08;100285.13;4952799;28;20248;-71
2023/03/17 07:25:08;;;;;;;3.37;2.23;;;;;;;6.99;58.34;100288.97;4949864;28;20706;-72
2023/03/17 07:27:35;;;;;;;3.07;2.03;;;;;;;7.08;58.26;100277.06;4945838;28;20217;-70
2023/03/17 07:30:03;;;;;;;3.33;2.20;;;;;;;7.17;58.13;100279.19;4951429;28;20213;-71
2023/03/17 07:32:32;;;;;;;4.60;2.27;;;;;;;7.27;57.63;100283.03;4951045;28;20240;-71
2023/03/17 07:34:58;;;;;;;2.93;2.30;;;;;;;7.36;57.61;100274.56;4949461;28;20208;-72
2023/03/17 07:37:25;;;;;;;4.70;2.13;;;;;;;7.46;57.17;100275.78;4946011;28;20205;-71
2023/03/17 07:39:51;;;;;;;3.37;2.20;;;;;;;7.55;56.67;100275.25;4949723;28;20220;-73
2023/03/17 07:42:18;;;;;;;3.50;2.07;;;;;;;7.63;55.47;100267.72;4946890;28;20239;-70
2023/03/17 07:44:45;;;;;;;3.63;2.10;;;;;;;7.70;55.95;100276.19;4948086;28;20227;-71
2023/03/17 07:47:12;;;;;;;2.70;2.00;;;;;;;7.78;55.45;100273.06;4947620;28;20227;-71
2023/03/17 07:49:39;;;;;;;3.33;1.80;;;;;;;7.87;55.74;100272.56;4952069;28;20442;-72
2023/03/17 07:52:07;;;;;;;3.17;1.87;;;;;;;7.96;55.44;100267.56;4946760;28;20255;-72
2023/03/17 07:54:34;;;;;;;2.90;2.00;;;;;;;8.02;55.27;100272.50;4949561;28;20264;-72
2023/03/17 07:57:00;;;;;;;3.00;2.00;;;;;;;8.12;54.99;100264.00;4950129;28;20606;-72
2023/03/17 07:59:27;;;;;;;3.00;2.20;;;;;;;8.23;53.96;100259.78;4946301;28;20737;-72
2023/03/17 08:01:54;;;;;;;3.40;2.00;;;;;;;8.34;52.78;100260.00;4946689;28;20229;-73
2023/03/17 08:04:20;;;;;;;2.63;1.93;;;;;;;8.51;52.57;100271.41;4951567;28;20201;-72
2023/03/17 08:06:48;;;;;;;3.07;1.70;;;;;;;8.66;52.40;100259.84;4951030;28;20213;-72
2023/03/17 08:09:15;;;;;;;5.10;2.27;;;;;;;8.80;52.85;100264.28;4943168;28;20206;-71
2023/03/17 08:11:41;;;;;;;2.80;1.97;;;;;;;8.92;52.81;100263.56;4947347;28;20212;-69
2023/03/17 08:14:08;;;;;;;2.70;1.87;;;;;;;9.04;51.95;100268.94;4951447;28;20262;-72
2023/03/17 08:16:35;;;;;;;2.50;1.70;;;;;;;9.18;52.13;100253.91;4952404;28;20251;-72
2023/03/17 08:19:02;;;;;;;2.97;2.03;;;;;;;9.29;52.00;100252.31;4944776;28;20201;-72
2023/03/17 08:21:29;;;;;;;2.77;1.87;;;;;;;9.46;51.22;100255.66;4946994;28;20704;-70
2023/03/17 08:23:57;;;;;;;2.47;1.53;;;;;;;9.64;49.83;100254.47;4951738;28;20243;-71
2023/03/17 08:26:24;;;;;;;2.50;2.00;;;;;;;9.78;49.18;100253.56;4944637;28;20215;-72
2023/03/17 08:28:50;;;;;;;3.20;1.83;;;;;;;9.90;48.92;100253.56;4948896;28;20291;-72
2023/03/17 08:31:19;;;;;;;3.63;1.80;;;;;;;10.02;48.72;100260.75;4949523;28;20205;-73
2023/03/17 08:33:48;;;;;;;2.83;1.80;;;;;;;10.14;48.29;100263.53;4949751;28;20240;-72
2023/03/17 08:36:15;;;;;;;2.67;1.90;;;;;;;10.28;48.82;100264.34;4947821;28;20204;-71
2023/03/17 08:38:42;;;;;;;2.63;1.80;;;;;;;10.44;48.60;100257.00;4946653;28;20214;-73
2023/03/17 08:41:12;;;;;;;2.83;1.90;;;;;;;10.60;48.36;100245.28;4950971;28;20398;-72
2023/03/17 08:43:40;;;;;;;2.73;1.90;;;;;;;10.74;47.70;100243.38;4946883;28;20237;-73
2023/03/17 08:46:10;;;;;;;2.23;1.53;;;;;;;10.88;47.46;100244.22;4944651;28;20422;-72
2023/03/17 08:48:36;;;;;;;3.17;1.90;;;;;;;11.00;47.70;100248.66;4949371;28;20208;-73
2023/03/17 08:51:04;;;;;;;2.33;1.77;;;;;;;11.13;47.26;100242.31;4942987;28;20210;-73
2023/03/17 08:53:33;;;;;;;1.90;1.37;;;;;;;11.27;46.77;100243.16;4945061;28;20241;-73
2023/03/17 08:56:00;;;;;;;1.67;1.47;;;;;;;11.37;46.20;100244.19;4946237;28;20245;-72
2023/03/17 08:58:28;;;;;;;3.70;2.27;;;;;;;11.49;45.94;100244.13;4944504;28;20202;-72
2023/03/17 09:00:59;;;;;;;4.00;2.30;;;;;;;11.64;45.69;100242.16;4948632;28;20592;-72
2023/03/17 09:03:26;;;;;;;4.57;2.70;;;;;;;11.77;45.31;100244.81;4950477;28;20436;-73
2023/03/17 09:05:53;;;;;;;2.83;2.10;;;;;;;11.90;45.01;100244.72;4953220;28;20203;-73
2023/03/17 09:08:20;;;;;;;3.83;2.00;;;;;;;12.01;44.70;100232.25;4951815;28;21554;-73
2023/03/17 09:10:47;;;;;;;3.33;1.80;;;;;;;12.12;44.42;100234.13;4946798;28;20209;-73
2023/03/17 09:13:14;;;;;;;2.53;1.70;;;;;;;12.21;43.93;100222.72;4950604;28;20330;-72
2023/03/17 09:15:42;;;;;;;1.90;1.43;;;;;;;12.31;43.35;100217.56;4953094;28;20204;-73
2023/03/17 09:18:09;;;;;;;2.90;2.03;;;;;;;12.34;42.83;100220.84;4948138;28;20788;-73
2023/03/17 09:20:36;;;;;;;1.53;1.43;;;;;;;12.40;42.72;100219.50;4949027;28;20239;-72
2023/03/17 09:23:06;;;;;;;2.20;1.87;;;;;;;12.45;43.28;100223.50;4948023;28;20229;-73
2023/03/17 09:25:34;;;;;;;3.57;1.70;;;;;;;12.56;43.36;100216.47;4947823;28;20206;-73
2023/03/17 09:28:01;;;;;;;3.07;1.83;;;;;;;12.65;43.00;100218.44;4950063;28;20209;-72
2023/03/17 09:30:27;;;;;;;3.70;2.10;;;;;;;12.70;42.30;100213.59;4950375;28;20205;-73
2023/03/17 09:32:55;;;;;;;2.77;2.07;;;;;;;12.75;42.62;100216.72;4944817;28;21432;-73
2023/03/17 09:35:22;;;;;;;3.10;1.57;;;;;;;12.80;42.30;100219.88;4945517;28;20298;-73
2023/03/17 09:37:48;;;;;;;2.37;2.07;;;;;;;12.85;42.68;100209.69;4951793;28;20208;-72
2023/03/17 09:40:18;;;;;;;2.20;1.80;;;;;;;12.92;42.82;100213.56;4958974;28;20200;-73
2023/03/17 09:42:56;;;;;;;2.20;1.70;;;;;;;12.99;42.48;100209.44;4949242;28;20247;-73
2023/03/17 09:45:31;;;;;;;2.90;1.60;;;;;;;13.02;42.38;100216.38;4947549;28;20215;-73
2023/03/17 09:48:18;;;;;;;2.53;1.80;;;;;;;13.07;42.56;100208.84;4949561;28;20251;-73
2023/03/17 09:50:48;;;;;;;1.83;1.63;;;;;;;13.15;42.33;100209.06;4948214;28;20220;-72
2023/03/17 09:53:19;;;;;;;1.87;1.30;;;;;;;13.22;42.57;100199.59;4946462;28;20232;-73
2023/03/17 09:55:51;;;;;;;2.07;1.57;;;;;;;13.31;42.54;100208.69;4945582;28;20220;-73
2023/03/17 09:58:21;;;;;;;3.33;2.10;;;;;;;13.36;42.01;100209.16;4945709;28;20247;-73
2023/03/17 10:00:48;;;;;;;2.90;2.10;;;;;;;13.40;41.82;100207.94;4953135;28;20232;-73
2023/03/17 10:03:16;;;;;;;4.17;1.70;;;;;;;13.45;41.41;100216.41;4946090;28;20403;-74
2023/03/17 10:05:43;;;;;;;2.10;1.30;;;;;;;13.47;41.19;100211.78;4946211;28;20209;-72
2023/03/17 10:08:15;;;;;;;2.33;1.43;;;;;;;13.53;40.97;100216.66;4950845;28;20209;-73
2023/03/17 10:10:47;;;;;;;1.77;1.47;;;;;;;13.54;40.97;100221.88;4949086;28;20303;-73
2023/03/17 10:13:27;;;;;;;2.60;1.87;;;;;;;13.59;40.80;100224.19;4944303;28;20252;-73
2023/03/17 10:16:00;;;;;;;1.80;1.47;;;;;;;13.67;41.15;100220.84;4945750;28;20208;-72
2023/03/17 10:18:33;;;;;;;1.60;1.20;;;;;;;13.74;40.46;100220.22;4948042;28;20690;-73
2023/03/17 10:21:03;;;;;;;1.70;1.23;;;;;;;13.77;40.09;100224.47;4945313;28;20221;-71
2023/03/17 10:23:32;;;;;;;2.53;1.40;;;;;;;13.82;40.04;100222.25;4948077;28;20229;-73
2023/03/17 10:26:06;;;;;;;1.83;1.60;;;;;;;13.81;39.63;100231.25;4943313;28;20212;-73
2023/03/17 10:28:37;;;;;;;2.03;1.60;;;;;;;13.84;39.44;100228.31;4948695;28;20256;-73
2023/03/17 10:31:14;;;;;;;1.97;1.60;;;;;;;13.86;39.51;100223.69;4939873;28;20485;-73
2023/03/17 10:33:43;;;;;;;2.27;1.67;;;;;;;13.87;39.56;100226.25;4951423;28;20744;-72
2023/03/17 10:36:14;;;;;;;3.40;1.80;;;;;;;13.85;39.62;100219.31;4944606;28;20216;-73
2023/03/17 10:38:42;;;;;;;2.60;1.70;;;;;;;13.89;39.75;100216.25;4950277;28;20288;-73
2023/03/17 10:41:13;;;;;;;1.77;1.60;;;;;;;13.92;40.11;100211.63;4951334;28;20775;-73
2023/03/17 10:43:43;;;;;;;1.63;1.50;;;;;;;13.96;39.59;100215.75;4951150;28;20224;-71
2023/03/17 10:46:18;;;;;;;2.50;1.30;;;;;;;13.96;39.75;100207.72;4948488;28;20205;-72
2023/03/17 10:48:51;;;;;;;7.10;1.83;;;;;;;14.00;40.13;100210.00;4945422;28;20227;-73
2023/03/17 10:51:25;;;;;;;3.40;1.87;;;;;;;14.08;40.58;100214.72;4947329;28;20256;-73
2023/03/17 10:53:53;;;;;;;2.10;1.20;;;;;;;14.11;40.32;100206.44;4946435;28;22402;-73
2023/03/17 10:56:26;;;;;;;2.63;1.80;;;;;;;14.13;40.72;100209.81;4945160;28;20210;-70
2023/03/17 10:58:54;;;;;;;4.17;1.87;;;;;;;14.14;40.56;100220.41;4949422;28;20210;-71
2023/03/17 11:01:23;;;;;;;2.07;1.50;;;;;;;14.19;40.85;100211.97;4949774;28;20698;-71
2023/03/17 11:03:51;;;;;;;3.30;1.73;;;;;;;14.23;41.21;100213.41;4947596;28;20309;-71
2023/03/17 11:06:20;;;;;;;1.73;1.33;;;;;;;14.27;40.97;100214.00;4947877;28;20221;-71
2023/03/17 11:08:48;;;;;;;2.70;1.67;;;;;;;14.32;41.46;100222.50;4950103;28;20682;-71
2023/03/17 11:11:25;;;;;;;3.37;1.80;;;;;;;14.35;41.17;100214.16;4942993;28;20212;-71
2023/03/17 11:14:00;;;;;;;3.80;1.63;;;;;;;14.39;41.34;100212.94;4947475;28;20236;-72
2023/03/17 11:16:27;;;;;;;2.00;1.57;;;;;;;14.51;41.02;100209.25;4948671;28;20205;-71
2023/03/17 11:18:59;;;;;;;3.17;1.50;;;;;;;14.61;41.62;100203.94;4947270;28;20212;-72
2023/03/17 11:21:29;;;;;;;2.23;1.40;;;;;;;14.69;40.85;100207.63;4948095;28;20205;-72
2023/03/17 11:24:03;;;;;;;2.83;1.70;;;;;;;14.75;40.48;100206.25;4947625;28;20217;-72
2023/03/17 11:26:58;;;;;;;3.23;2.47;;;;;;;14.86;40.31;100204.34;4944393;28;20216;-74
2023/03/17 11:29:45;;;;;;;2.70;1.40;;;;;;;14.96;40.01;100203.50;4937636;28;20217;-72
2023/03/17 11:32:25;;;;;;;2.43;1.47;;;;;;;14.99;39.64;100200.56;4949193;28;20229;-72
2023/03/17 11:35:03;;;;;;;2.20;1.30;;;;;;;15.05;39.60;100191.97;4948157;28;20227;-72